Time;durP1;ratioP1;P1;durP2;ratioP2;P2;SDS_P1;SDS_P2;PMS_P1;PMS_P2;Temp;Humidity;BMP_temperature;BMP_pressure;BME280_temperature;BME280_humidity;BME280_pressure;Samples;Min_cycle;Max_cycle;Signal;HPM_P1;HPM_P2
2021/09/27 00:00:29;;;;;;;24.00;18.35;;;;;;;;;;5019906;28;20029;-83
2021/09/27 00:02:54;;;;;;;21.97;19.67;;;;;;;;;;5001365;28;20467;-83
2021/09/27 00:05:21;;;;;;;25.67;21.00;;;;;;;;;;5018025;28;20026;-83
2021/09/27 00:07:46;;;;;;;27.10;21.23;;;;;;;;;;4999516;28;20048;-83
2021/09/27 00:10:14;;;;;;;22.40;19.95;;;;;;;;;;5016968;28;20030;-83
2021/09/27 00:12:39;;;;;;;22.63;19.55;;;;;;;;;;5000153;28;20037;-83
2021/09/27 00:15:07;;;;;;;23.83;19.17;;;;;;;;;;5003148;28;20133;-83
2021/09/27 00:17:32;;;;;;;18.08;14.73;;;;;;;;;;5001332;28;20057;-83
2021/09/27 00:19:58;;;;;;;19.42;14.35;;;;;;;;;;5018450;28;20026;-83
2021/09/27 00:22:23;;;;;;;15.70;14.10;;;;;;;;;;4999991;28;20048;-82
2021/09/27 00:24:48;;;;;;;24.50;18.08;;;;;;;;;;4998451;28;20018;-82
2021/09/27 00:27:14;;;;;;;27.48;22.35;;;;;;;;;;5015870;28;20787;-83
2021/09/27 00:29:39;;;;;;;24.25;21.70;;;;;;;;;;4999938;28;20116;-83
2021/09/27 00:32:05;;;;;;;21.95;19.60;;;;;;;;;;5001218;28;20485;-83
2021/09/27 00:34:30;;;;;;;18.42;14.38;;;;;;;;;;5001695;28;20034;-83
2021/09/27 00:36:56;;;;;;;18.27;16.27;;;;;;;;;;5018507;28;20022;-83
2021/09/27 00:39:21;;;;;;;18.67;14.90;;;;;;;;;;5017906;28;20029;-83
2021/09/27 00:41:46;;;;;;;21.67;17.95;;;;;;;;;;5015705;28;20022;-83
2021/09/27 00:44:12;;;;;;;22.23;19.70;;;;;;;;;;4997647;28;20083;-83
2021/09/27 00:46:37;;;;;;;23.33;19.65;;;;;;;;;;4998714;28;20026;-83
2021/09/27 00:49:03;;;;;;;23.02;19.35;;;;;;;;;;5000441;28;20076;-83
2021/09/27 00:51:30;;;;;;;22.60;19.00;;;;;;;;;;5018047;28;20026;-83
2021/09/27 00:53:57;;;;;;;20.25;17.63;;;;;;;;;;4999007;28;20026;-83
2021/09/27 00:56:28;;;;;;;27.60;22.75;;;;;;;;;;5015647;28;20040;-83
2021/09/27 00:58:55;;;;;;;29.70;24.17;;;;;;;;;;4998098;28;20036;-83
2021/09/27 01:01:22;;;;;;;26.33;23.48;;;;;;;;;;4997543;28;20116;-83
2021/09/27 01:03:47;;;;;;;16.83;15.20;;;;;;;;;;4997453;28;20025;-83
2021/09/27 01:06:19;;;;;;;20.65;18.40;;;;;;;;;;5016317;28;20029;-83
2021/09/27 01:09:04;;;;;;;22.15;19.85;;;;;;;;;;4999534;28;20017;-82
2021/09/27 01:11:47;;;;;;;22.95;18.58;;;;;;;;;;5018351;28;20017;-83
2021/09/27 01:14:13;;;;;;;17.63;15.48;;;;;;;;;;5000741;28;20052;-83
2021/09/27 01:16:38;;;;;;;28.00;21.13;;;;;;;;;;4999554;28;20018;-83
2021/09/27 01:19:03;;;;;;;25.63;20.42;;;;;;;;;;5016406;28;20272;-82
2021/09/27 01:21:36;;;;;;;20.05;17.63;;;;;;;;;;5014558;28;20030;-83
2021/09/27 01:24:19;;;;;;;19.05;16.95;;;;;;;;;;4997798;28;20113;-83
2021/09/27 01:26:50;;;;;;;22.38;19.38;;;;;;;;;;5001000;28;20057;-83
2021/09/27 01:29:16;;;;;;;;;;;;;;;;;;5000711;28;20029;-83
2021/09/27 01:31:59;;;;;;;28.23;20.75;;;;;;;;;;5014747;28;19929;-83
2021/09/27 01:34:29;;;;;;;19.23;16.50;;;;;;;;;;5014990;28;20022;-82
2021/09/27 01:36:57;;;;;;;17.23;14.90;;;;;;;;;;4998003;28;20108;-83
2021/09/27 01:39:32;;;;;;;23.98;21.40;;;;;;;;;;4997740;28;20513;-83
2021/09/27 01:42:16;;;;;;;23.20;19.90;;;;;;;;;;4997932;28;20049;-83
2021/09/27 01:44:41;;;;;;;19.98;17.83;;;;;;;;;;4996435;28;20025;-83
2021/09/27 01:47:11;;;;;;;21.43;17.10;;;;;;;;;;5013098;28;20069;-83
2021/09/27 01:49:37;;;;;;;23.98;19.42;;;;;;;;;;4996663;28;20456;-83
2021/09/27 01:52:02;;;;;;;20.70;17.92;;;;;;;;;;4996190;28;20125;-83
2021/09/27 01:54:40;;;;;;;28.42;22.73;;;;;;;;;;4995750;28;20494;-83
2021/09/27 01:57:18;;;;;;;22.30;19.90;;;;;;;;;;4999312;28;20026;-83
2021/09/27 02:00:03;;;;;;;22.10;19.02;;;;;;;;;;5000984;28;20034;-83
2021/09/27 02:02:34;;;;;;;25.95;21.15;;;;;;;;;;5016899;28;20494;-82
2021/09/27 02:05:03;;;;;;;30.75;23.75;;;;;;;;;;5016456;28;20039;-82
2021/09/27 02:07:30;;;;;;;21.10;19.00;;;;;;;;;;4996245;28;20021;-83
2021/09/27 02:10:00;;;;;;;23.38;19.60;;;;;;;;;;4996695;28;20022;-82
2021/09/27 02:12:29;;;;;;;23.77;20.90;;;;;;;;;;4996542;28;20025;-83
2021/09/27 02:14:54;;;;;;;26.45;21.05;;;;;;;;;;4995332;28;20118;-83
2021/09/27 02:17:24;;;;;;;23.13;20.30;;;;;;;;;;5013716;28;20512;-83
2021/09/27 02:19:57;;;;;;;24.27;21.42;;;;;;;;;;4994635;28;20149;-83
2021/09/27 02:22:26;;;;;;;25.98;23.15;;;;;;;;;;4996114;28;20025;-83
2021/09/27 02:24:51;;;;;;;26.13;21.58;;;;;;;;;;5014650;28;20044;-83
2021/09/27 02:27:16;;;;;;;27.87;24.83;;;;;;;;;;4997931;28;20018;-83
2021/09/27 02:29:42;;;;;;;32.97;24.77;;;;;;;;;;5016538;28;20257;-83
2021/09/27 02:32:29;;;;;;;30.05;23.33;;;;;;;;;;4997008;28;20084;-83
2021/09/27 02:35:00;;;;;;;29.73;23.10;;;;;;;;;;4996804;28;20028;-83
2021/09/27 02:37:46;;;;;;;25.40;22.65;;;;;;;;;;4996904;28;20141;-83
2021/09/27 02:40:27;;;;;;;19.70;17.70;;;;;;;;;;4996488;28;20122;-83
2021/09/27 02:42:54;;;;;;;22.50;20.17;;;;;;;;;;4995598;28;20120;-83
2021/09/27 02:45:20;;;;;;;20.17;18.08;;;;;;;;;;5013231;28;20695;-83
2021/09/27 02:47:49;;;;;;;18.00;16.17;;;;;;;;;;5013183;28;20056;-83
2021/09/27 02:50:16;;;;;;;19.45;17.50;;;;;;;;;;4996220;28;20024;-82
2021/09/27 02:52:41;;;;;;;33.53;24.60;;;;;;;;;;4997228;28;20022;-83
2021/09/27 02:55:09;;;;;;;20.43;17.00;;;;;;;;;;4996981;28;20470;-83
2021/09/27 02:57:37;;;;;;;19.90;17.85;;;;;;;;;;4999079;28;20268;-83
2021/09/27 03:00:26;;;;;;;23.60;20.60;;;;;;;;;;4998795;28;20034;-83
2021/09/27 03:03:04;;;;;;;22.92;20.27;;;;;;;;;;4995729;28;20474;-83
2021/09/27 03:05:50;;;;;;;33.33;26.00;;;;;;;;;;4994924;28;20455;-83
2021/09/27 03:08:27;;;;;;;32.85;24.63;;;;;;;;;;5013051;28;20704;-83
2021/09/27 03:10:52;;;;;;;21.15;16.65;;;;;;;;;;4995909;28;20044;-83
2021/09/27 03:13:20;;;;;;;30.37;24.73;;;;;;;;;;4997750;28;20025;-83
2021/09/27 03:15:48;;;;;;;31.55;26.70;;;;;;;;;;5015288;28;20025;-83
2021/09/27 03:18:34;;;;;;;19.98;17.92;;;;;;;;;;4997517;28;20053;-83
2021/09/27 03:21:06;;;;;;;27.40;22.45;;;;;;;;;;4947922;28;20125;-83
2021/09/27 03:23:40;;;;;;;31.88;23.98;;;;;;;;;;5014614;28;20052;-83
2021/09/27 03:26:21;;;;;;;28.90;25.48;;;;;;;;;;4995094;28;20064;-83
2021/09/27 03:28:46;;;;;;;31.30;25.23;;;;;;;;;;4995491;28;20576;-83
2021/09/27 03:31:30;;;;;;;28.67;24.20;;;;;;;;;;4998250;28;20018;-83
2021/09/27 03:34:05;;;;;;;39.83;28.98;;;;;;;;;;5022509;28;20045;-83
2021/09/27 03:36:30;;;;;;;30.67;26.42;;;;;;;;;;5003081;28;20042;-83
2021/09/27 03:38:55;;;;;;;24.77;22.20;;;;;;;;;;5002661;28;20094;-83
2021/09/27 03:41:26;;;;;;;34.03;26.33;;;;;;;;;;5002488;28;20264;-83
2021/09/27 03:43:57;;;;;;;28.00;24.33;;;;;;;;;;5002153;28;20367;-84
2021/09/27 03:46:50;;;;;;;44.65;30.02;;;;;;;;;;5019751;28;20022;-84
2021/09/27 03:49:38;;;;;;;41.95;29.20;;;;;;;;;;5002199;28;20026;-84
2021/09/27 03:52:09;;;;;;;27.38;24.48;;;;;;;;;;4988796;28;20052;-84
2021/09/27 03:54:39;;;;;;;34.58;26.90;;;;;;;;;;5019947;28;20032;-84
2021/09/27 03:57:11;;;;;;;34.30;25.70;;;;;;;;;;5001956;28;20033;-84
2021/09/27 03:59:40;;;;;;;21.75;19.38;;;;;;;;;;5002160;28;20117;-83
2021/09/27 04:02:14;;;;;;;37.15;27.27;;;;;;;;;;5001869;28;20021;-83
2021/09/27 04:04:48;;;;;;;29.42;25.65;;;;;;;;;;5002456;28;20071;-84
2021/09/27 04:07:32;;;;;;;21.27;18.75;;;;;;;;;;5002860;28;20022;-84
2021/09/27 04:10:16;;;;;;;40.08;28.38;;;;;;;;;;5002631;28;20033;-84
2021/09/27 04:12:45;;;;;;;34.08;25.30;;;;;;;;;;5002053;28;20477;-84
2021/09/27 04:15:36;;;;;;;28.98;25.20;;;;;;;;;;5003898;28;20032;-84
2021/09/27 04:18:11;;;;;;;35.88;26.90;;;;;;;;;;5001695;28;20026;-84
2021/09/27 04:20:55;;;;;;;32.53;26.23;;;;;;;;;;5001777;28;20030;-83
2021/09/27 04:23:26;;;;;;;39.03;27.80;;;;;;;;;;5019715;28;20523;-84
2021/09/27 04:25:51;;;;;;;;;;;;;;;;;;5002209;28;20021;-83
2021/09/27 04:28:35;;;;;;;35.28;27.02;;;;;;;;;;5006422;28;19920;-84
2021/09/27 04:31:06;;;;;;;23.05;20.48;;;;;;;;;;5005321;28;20060;-84
2021/09/27 04:33:50;;;;;;;36.95;29.17;;;;;;;;;;5003512;28;20065;-84
2021/09/27 04:36:20;;;;;;;41.47;31.55;;;;;;;;;;5002474;28;20781;-83
2021/09/27 04:38:48;;;;;;;25.47;22.53;;;;;;;;;;5019357;28;20089;-83
2021/09/27 04:41:39;;;;;;;29.75;25.17;;;;;;;;;;5008023;28;20297;-84
2021/09/27 04:44:14;;;;;;;42.63;32.35;;;;;;;;;;5019704;28;20030;-84
2021/09/27 04:47:00;;;;;;;40.40;28.95;;;;;;;;;;4999738;28;20052;-84
2021/09/27 04:49:28;;;;;;;36.97;30.67;;;;;;;;;;4998529;28;20571;-84
2021/09/27 04:52:04;;;;;;;40.42;30.83;;;;;;;;;;5016783;28;20026;-84
2021/09/27 04:54:30;;;;;;;26.80;23.83;;;;;;;;;;5002360;28;20022;-84
2021/09/27 04:57:03;;;;;;;31.77;26.87;;;;;;;;;;5021110;28;20029;-83
2021/09/27 04:59:31;;;;;;;33.90;28.20;;;;;;;;;;5001007;28;20037;-83
2021/09/27 05:02:14;;;;;;;57.65;37.20;;;;;;;;;;5017313;28;20032;-84
2021/09/27 05:04:55;;;;;;;46.67;32.42;;;;;;;;;;4998351;28;20393;-83
2021/09/27 05:07:20;;;;;;;57.88;40.00;;;;;;;;;;4997997;28;20030;-83
2021/09/27 05:10:04;;;;;;;41.67;32.10;;;;;;;;;;5002045;28;20025;-83
2021/09/27 05:12:32;;;;;;;40.00;33.15;;;;;;;;;;5000624;28;20025;-84
2021/09/27 05:14:58;;;;;;;32.63;28.92;;;;;;;;;;5016941;28;20017;-83
2021/09/27 05:17:32;;;;;;;64.13;42.10;;;;;;;;;;4998412;28;20025;-83
2021/09/27 05:20:14;;;;;;;47.53;35.67;;;;;;;;;;4998314;28;20025;-83
2021/09/27 05:22:40;;;;;;;55.53;38.97;;;;;;;;;;4998829;28;20029;-84
2021/09/27 05:25:05;;;;;;;43.75;36.75;;;;;;;;;;5018916;28;20457;-83
2021/09/27 05:27:33;;;;;;;38.58;31.38;;;;;;;;;;4998874;28;20044;-83
2021/09/27 05:30:25;;;;;;;31.15;27.42;;;;;;;;;;4998486;28;20100;-84
2021/09/27 05:33:09;;;;;;;41.72;34.63;;;;;;;;;;5015210;28;20030;-83
2021/09/27 05:35:47;;;;;;;46.58;35.25;;;;;;;;;;5000279;28;20059;-84
2021/09/27 05:38:28;;;;;;;58.92;38.42;;;;;;;;;;5017934;28;20025;-83
2021/09/27 05:41:01;;;;;;;45.00;34.42;;;;;;;;;;5017611;28;20022;-83
2021/09/27 05:43:30;;;;;;;49.80;37.90;;;;;;;;;;4998132;28;20033;-83
2021/09/27 05:46:01;;;;;;;43.42;34.80;;;;;;;;;;4997188;28;20072;-83
2021/09/27 05:48:26;;;;;;;;;;;;;;;;;;5015716;28;20050;-83
2021/09/27 05:51:01;;;;;;;28.00;25.00;;;;;;;;;;5019005;28;19974;-83
2021/09/27 05:53:29;;;;;;;50.13;37.05;;;;;;;;;;4999772;28;20025;-84
2021/09/27 05:56:21;;;;;;;51.03;36.60;;;;;;;;;;5016146;28;20072;-83
2021/09/27 05:58:46;;;;;;;;;;;;;;;;;;4960863;28;20069;-83
2021/09/27 06:01:14;;;;;;;34.03;28.20;;;;;;;;;;4996292;28;19949;-83
2021/09/27 06:03:39;;;;;;;35.95;29.85;;;;;;;;;;4997320;28;20025;-83
2021/09/27 06:06:18;;;;;;;56.40;42.47;;;;;;;;;;5000570;28;20120;-84
2021/09/27 06:09:03;;;;;;;58.67;41.60;;;;;;;;;;4998473;28;20288;-84
2021/09/27 06:11:36;;;;;;;52.25;41.05;;;;;;;;;;5000499;28;20030;-84
2021/09/27 06:14:02;;;;;;;35.17;28.98;;;;;;;;;;4998673;28;20026;-84
2021/09/27 06:16:38;;;;;;;54.72;39.95;;;;;;;;;;5014837;28;20492;-84
2021/09/27 06:19:06;;;;;;;55.13;42.42;;;;;;;;;;4997136;28;20097;-84
2021/09/27 06:21:53;;;;;;;51.72;37.75;;;;;;;;;;5017103;28;20141;-83
2021/09/27 06:24:23;;;;;;;56.47;43.65;;;;;;;;;;4996430;28;20037;-84
2021/09/27 06:27:00;;;;;;;68.93;47.72;;;;;;;;;;4995383;28;20113;-84
2021/09/27 06:29:34;;;;;;;51.35;41.17;;;;;;;;;;4994720;28;20029;-84
2021/09/27 06:32:07;;;;;;;41.72;36.60;;;;;;;;;;5014129;28;20377;-84
2021/09/27 06:34:35;;;;;;;37.30;31.95;;;;;;;;;;5015673;28;20045;-84
2021/09/27 06:37:01;;;;;;;39.05;31.48;;;;;;;;;;4996604;28;20025;-84
2021/09/27 06:39:30;;;;;;;52.58;40.33;;;;;;;;;;4995960;28;20708;-84
2021/09/27 06:41:56;;;;;;;57.80;43.72;;;;;;;;;;4998184;28;20057;-83
2021/09/27 06:44:24;;;;;;;40.60;35.22;;;;;;;;;;5017777;28;20034;-83
2021/09/27 06:46:49;;;;;;;47.45;37.70;;;;;;;;;;4992651;28;20091;-84
2021/09/27 06:49:15;;;;;;;60.67;45.00;;;;;;;;;;4976278;28;20527;-84
2021/09/27 06:51:44;;;;;;;43.80;37.38;;;;;;;;;;4994027;28;20040;-83
2021/09/27 06:54:10;;;;;;;54.83;44.63;;;;;;;;;;4981420;28;20014;-84
2021/09/27 06:56:36;;;;;;;57.40;45.38;;;;;;;;;;4996052;28;20058;-84
2021/09/27 06:59:01;;;;;;;65.32;49.83;;;;;;;;;;4976537;28;20501;-83
2021/09/27 07:01:27;;;;;;;60.22;46.85;;;;;;;;;;4976138;28;20034;-84
2021/09/27 07:03:52;;;;;;;56.83;44.97;;;;;;;;;;4978629;28;20026;-84
2021/09/27 07:06:17;;;;;;;42.40;37.90;;;;;;;;;;4978743;28;20018;-84
2021/09/27 07:08:42;;;;;;;54.97;43.30;;;;;;;;;;4976948;28;20125;-84
2021/09/27 07:11:08;;;;;;;72.45;52.30;;;;;;;;;;4976227;28;20019;-84
2021/09/27 07:13:33;;;;;;;47.25;40.65;;;;;;;;;;4976903;28;20022;-84
2021/09/27 07:15:58;;;;;;;86.67;57.40;;;;;;;;;;4980628;28;20573;-84
2021/09/27 07:18:24;;;;;;;51.78;43.83;;;;;;;;;;4978300;28;20026;-84
2021/09/27 07:20:49;;;;;;;56.28;45.40;;;;;;;;;;4976906;28;20048;-84
2021/09/27 07:23:15;;;;;;;46.50;39.97;;;;;;;;;;4975833;28;20538;-83
2021/09/27 07:25:40;;;;;;;48.17;40.72;;;;;;;;;;4976772;28;20522;-84
2021/09/27 07:28:06;;;;;;;51.70;42.42;;;;;;;;;;4994671;28;20474;-84
2021/09/27 07:30:31;;;;;;;52.13;44.55;;;;;;;;;;4976552;28;20019;-83
2021/09/27 07:32:56;;;;;;;64.05;49.70;;;;;;;;;;4975681;28;20053;-84
2021/09/27 07:35:24;;;;;;;61.67;49.47;;;;;;;;;;4977966;28;20030;-84
2021/09/27 07:37:49;;;;;;;67.53;52.08;;;;;;;;;;4995353;28;20030;-83
2021/09/27 07:40:16;;;;;;;46.13;41.15;;;;;;;;;;4976291;28;20033;-84
2021/09/27 07:42:41;;;;;;;45.47;40.75;;;;;;;;;;4975094;28;20036;-84
2021/09/27 07:45:08;;;;;;;69.38;53.03;;;;;;;;;;4976101;28;20109;-83
2021/09/27 07:47:33;;;;;;;64.75;49.60;;;;;;;;;;4987623;28;20045;-84
2021/09/27 07:49:58;;;;;;;51.30;43.23;;;;;;;;;;4998712;28;20034;-84
2021/09/27 07:52:23;;;;;;;76.18;55.30;;;;;;;;;;5014860;28;20261;-84
2021/09/27 07:54:49;;;;;;;73.83;55.97;;;;;;;;;;4995456;28;20042;-84
2021/09/27 07:57:15;;;;;;;54.33;46.78;;;;;;;;;;4995321;28;20048;-84
2021/09/27 07:59:40;;;;;;;66.28;48.45;;;;;;;;;;4998020;28;20102;-84
2021/09/27 08:02:06;;;;;;;63.40;51.67;;;;;;;;;;5014661;28;20097;-84
2021/09/27 08:04:31;;;;;;;76.63;57.72;;;;;;;;;;4992213;28;20029;-84
2021/09/27 08:06:56;;;;;;;54.35;47.13;;;;;;;;;;5015651;28;20025;-84
2021/09/27 08:09:22;;;;;;;55.47;47.67;;;;;;;;;;5022910;28;20677;-85
2021/09/27 08:11:47;;;;;;;50.30;44.83;;;;;;;;;;5011206;28;20030;-85
2021/09/27 08:14:12;;;;;;;51.17;45.35;;;;;;;;;;5010376;28;20446;-84
2021/09/27 08:16:37;;;;;;;67.55;52.97;;;;;;;;;;5029534;28;20017;-84
2021/09/27 08:19:03;;;;;;;64.70;53.05;;;;;;;;;;5016973;28;20032;-84
2021/09/27 08:21:28;;;;;;;74.25;55.78;;;;;;;;;;5026775;28;20044;-84
2021/09/27 08:23:54;;;;;;;58.28;48.22;;;;;;;;;;5030280;28;20536;-83
2021/09/27 08:26:19;;;;;;;70.40;54.93;;;;;;;;;;5002007;28;20026;-84
2021/09/27 08:28:45;;;;;;;86.90;61.40;;;;;;;;;;5013316;28;20342;-83
2021/09/27 08:31:14;;;;;;;76.18;57.60;;;;;;;;;;5023815;28;20052;-83
2021/09/27 08:33:40;;;;;;;67.38;52.25;;;;;;;;;;5037549;28;20017;-83
2021/09/27 08:36:06;;;;;;;68.00;53.33;;;;;;;;;;5019115;28;20028;-83
2021/09/27 08:38:37;;;;;;;65.05;53.03;;;;;;;;;;5019577;28;20030;-83
2021/09/27 08:41:17;;;;;;;72.07;55.08;;;;;;;;;;5016565;28;20025;-84
2021/09/27 08:43:55;;;;;;;62.25;48.45;;;;;;;;;;5033485;28;20485;-83
2021/09/27 08:46:30;;;;;;;47.65;41.55;;;;;;;;;;5017210;28;20112;-84
2021/09/27 08:49:01;;;;;;;55.97;48.67;;;;;;;;;;5035673;28;20025;-84
2021/09/27 08:51:26;;;;;;;51.67;43.17;;;;;;;;;;5035034;28;20022;-83
2021/09/27 08:53:52;;;;;;;59.85;50.08;;;;;;;;;;5017314;28;20037;-83
2021/09/27 08:56:23;;;;;;;57.35;48.03;;;;;;;;;;5016981;28;20022;-84
2021/09/27 08:58:52;;;;;;;68.45;54.53;;;;;;;;;;5030356;28;20032;-84
2021/09/27 09:01:47;;;;;;;51.25;43.67;;;;;;;;;;5024308;28;20017;-84
2021/09/27 09:04:35;;;;;;;73.15;56.22;;;;;;;;;;4949201;28;20155;-84
2021/09/27 09:07:03;;;;;;;67.68;52.47;;;;;;;;;;4977036;28;20061;-84
2021/09/27 09:09:41;;;;;;;48.38;43.15;;;;;;;;;;4994980;28;20061;-83
2021/09/27 09:12:33;;;;;;;53.50;46.08;;;;;;;;;;4993386;28;20579;-83
2021/09/27 09:15:07;;;;;;;63.60;52.40;;;;;;;;;;4976303;28;20030;-84
2021/09/27 09:17:32;;;;;;;50.15;44.78;;;;;;;;;;5023970;28;20025;-83
2021/09/27 09:19:59;;;;;;;63.77;49.60;;;;;;;;;;5016706;28;20026;-84
2021/09/27 09:22:30;;;;;;;68.82;52.65;;;;;;;;;;5031858;28;21013;-83
2021/09/27 09:24:56;;;;;;;58.28;48.72;;;;;;;;;;4998277;28;20017;-84
2021/09/27 09:27:21;;;;;;;50.80;45.30;;;;;;;;;;5016025;28;20033;-83
2021/09/27 09:29:47;;;;;;;70.40;53.92;;;;;;;;;;5010581;28;20529;-83
2021/09/27 09:32:18;;;;;;;72.25;58.08;;;;;;;;;;5017516;28;20025;-83
2021/09/27 09:34:43;;;;;;;72.32;56.38;;;;;;;;;;5029749;28;20026;-83
2021/09/27 09:37:13;;;;;;;58.47;49.78;;;;;;;;;;4995885;28;20032;-83
2021/09/27 09:39:40;;;;;;;55.95;49.78;;;;;;;;;;5025626;28;20029;-84
2021/09/27 09:42:11;;;;;;;69.05;54.97;;;;;;;;;;5017128;28;20501;-83
2021/09/27 09:44:39;;;;;;;66.45;54.88;;;;;;;;;;4996918;28;20021;-83
2021/09/27 09:47:12;;;;;;;61.00;52.20;;;;;;;;;;5027813;28;20445;-84
2021/09/27 09:49:56;;;;;;;57.83;48.80;;;;;;;;;;4998526;28;20171;-83
2021/09/27 09:52:27;;;;;;;61.63;51.15;;;;;;;;;;4997454;28;20029;-84
2021/09/27 09:54:54;;;;;;;66.85;51.72;;;;;;;;;;5015434;28;20088;-83
2021/09/27 09:57:40;;;;;;;65.78;53.08;;;;;;;;;;4998043;28;20018;-84
2021/09/27 10:00:17;;;;;;;56.50;50.15;;;;;;;;;;4994063;28;20036;-84
2021/09/27 10:02:43;;;;;;;56.33;49.42;;;;;;;;;;4977972;28;20018;-84
2021/09/27 10:05:19;;;;;;;57.63;51.20;;;;;;;;;;4998123;28;20021;-84
2021/09/27 10:07:52;;;;;;;57.85;49.03;;;;;;;;;;5018135;28;20018;-84
2021/09/27 10:10:26;;;;;;;52.20;46.25;;;;;;;;;;4997521;28;20238;-84
2021/09/27 10:12:51;;;;;;;53.28;46.50;;;;;;;;;;4996785;28;20014;-84
2021/09/27 10:15:26;;;;;;;55.93;47.27;;;;;;;;;;4994002;28;20013;-83
2021/09/27 10:18:00;;;;;;;55.85;49.83;;;;;;;;;;5010601;28;20265;-83
2021/09/27 10:20:32;;;;;;;50.67;43.45;;;;;;;;;;5011604;28;20045;-83
2021/09/27 10:22:59;;;;;;;53.30;46.25;;;;;;;;;;5014134;28;20025;-83
2021/09/27 10:25:28;;;;;;;46.40;41.67;;;;;;;;;;5015903;28;20021;-84
2021/09/27 10:27:53;;;;;;;46.08;41.25;;;;;;;;;;4995752;28;20026;-84
2021/09/27 10:30:23;;;;;;;44.50;40.00;;;;;;;;;;4996815;28;20018;-84
2021/09/27 10:32:50;;;;;;;43.20;38.53;;;;;;;;;;5011150;28;20488;-84
2021/09/27 10:35:24;;;;;;;44.33;39.33;;;;;;;;;;5010618;28;20076;-84
2021/09/27 10:37:53;;;;;;;42.03;37.50;;;;;;;;;;5011044;28;20049;-83
2021/09/27 10:40:19;;;;;;;37.10;33.45;;;;;;;;;;5014590;28;20026;-84
2021/09/27 10:42:51;;;;;;;41.20;37.05;;;;;;;;;;4995765;28;20040;-84
2021/09/27 10:45:17;;;;;;;41.30;37.10;;;;;;;;;;4994836;28;20422;-84
2021/09/27 10:47:45;;;;;;;37.75;33.92;;;;;;;;;;4982126;28;20387;-84
2021/09/27 10:50:17;;;;;;;35.63;31.85;;;;;;;;;;5006350;28;20623;-85
2021/09/27 10:52:54;;;;;;;35.80;31.60;;;;;;;;;;5006385;28;20049;-87
2021/09/27 10:55:24;;;;;;;37.22;30.45;;;;;;;;;;4992017;28;20449;-85
2021/09/27 10:57:49;;;;;;;36.28;32.67;;;;;;;;;;4992069;28;20409;-85
2021/09/27 11:00:34;;;;;;;34.47;30.23;;;;;;;;;;4974137;28;20030;-85
2021/09/27 11:03:19;;;;;;;32.40;28.88;;;;;;;;;;4979537;28;20025;-85
2021/09/27 11:05:54;;;;;;;33.15;29.70;;;;;;;;;;4997342;28;20038;-85
2021/09/27 11:08:31;;;;;;;34.40;30.73;;;;;;;;;;4990647;28;20026;-85
2021/09/27 11:10:57;;;;;;;35.40;31.52;;;;;;;;;;4999426;28;20014;-85
2021/09/27 11:13:34;;;;;;;30.42;27.48;;;;;;;;;;4993492;28;20026;-85
2021/09/27 11:15:59;;;;;;;34.13;26.98;;;;;;;;;;4997961;28;20022;-85
2021/09/27 11:18:29;;;;;;;30.83;27.60;;;;;;;;;;4989207;28;20026;-85
2021/09/27 11:20:54;;;;;;;29.85;26.65;;;;;;;;;;4995837;28;20104;-84
2021/09/27 11:23:22;;;;;;;29.25;26.35;;;;;;;;;;4993783;28;20517;-84
2021/09/27 11:26:06;;;;;;;30.75;27.55;;;;;;;;;;4995455;28;20026;-84
2021/09/27 11:28:43;;;;;;;31.13;27.80;;;;;;;;;;5010557;28;20200;-84
2021/09/27 11:31:30;;;;;;;31.98;28.73;;;;;;;;;;4997575;28;20048;-83
2021/09/27 11:34:19;;;;;;;28.35;25.55;;;;;;;;;;5009333;28;20065;-84
2021/09/27 11:36:47;;;;;;;31.42;28.00;;;;;;;;;;4963940;28;20077;-84
2021/09/27 11:39:38;;;;;;;29.25;26.45;;;;;;;;;;4983727;28;20027;-84
2021/09/27 11:42:15;;;;;;;32.15;28.75;;;;;;;;;;4971621;28;20031;-84
2021/09/27 11:45:12;;;;;;;32.10;28.88;;;;;;;;;;4996601;28;20378;-84
2021/09/27 11:47:40;;;;;;;35.55;29.27;;;;;;;;;;4993791;28;20075;-83
2021/09/27 11:50:26;;;;;;;32.17;28.88;;;;;;;;;;5010576;28;20441;-84
2021/09/27 11:53:12;;;;;;;31.45;28.33;;;;;;;;;;5011362;28;20049;-84
2021/09/27 11:55:43;;;;;;;30.73;27.27;;;;;;;;;;4999693;28;20026;-84
2021/09/27 11:58:31;;;;;;;28.60;25.60;;;;;;;;;;4987495;28;20433;-84
2021/09/27 12:01:02;;;;;;;30.70;26.35;;;;;;;;;;4990239;28;20060;-84
2021/09/27 12:03:40;;;;;;;25.35;22.80;;;;;;;;;;4978642;28;20030;-84
2021/09/27 12:06:05;;;;;;;25.92;22.40;;;;;;;;;;5009294;28;20034;-83
2021/09/27 12:08:35;;;;;;;28.60;25.43;;;;;;;;;;4995989;28;20030;-84
2021/09/27 12:11:09;;;;;;;27.30;23.77;;;;;;;;;;4990942;28;20348;-84
2021/09/27 12:13:34;;;;;;;26.67;23.98;;;;;;;;;;4989887;28;20030;-84
2021/09/27 12:16:00;;;;;;;26.00;23.23;;;;;;;;;;5001463;28;20125;-84
2021/09/27 12:18:34;;;;;;;25.10;21.80;;;;;;;;;;4993733;28;20095;-83
2021/09/27 12:21:01;;;;;;;27.58;24.73;;;;;;;;;;5000383;28;20026;-83
2021/09/27 12:23:26;;;;;;;23.92;21.55;;;;;;;;;;4986743;28;20026;-84
2021/09/27 12:25:51;;;;;;;23.23;20.80;;;;;;;;;;4991899;28;20026;-84
2021/09/27 12:28:27;;;;;;;26.45;21.92;;;;;;;;;;5000823;28;20030;-84
2021/09/27 12:30:54;;;;;;;24.40;19.92;;;;;;;;;;4992878;28;20121;-84
2021/09/27 12:33:26;;;;;;;24.40;22.08;;;;;;;;;;5002132;28;20097;-84
2021/09/27 12:36:05;;;;;;;23.90;20.55;;;;;;;;;;4996106;28;20765;-84
2021/09/27 12:38:32;;;;;;;23.48;21.15;;;;;;;;;;5005718;28;20048;-84
2021/09/27 12:40:58;;;;;;;18.85;17.05;;;;;;;;;;5014491;28;20029;-83
2021/09/27 12:43:24;;;;;;;19.35;16.70;;;;;;;;;;4988419;28;20030;-84
2021/09/27 12:45:52;;;;;;;18.88;17.08;;;;;;;;;;4996278;28;20034;-83
2021/09/27 12:48:25;;;;;;;19.77;17.98;;;;;;;;;;5005928;28;20762;-84
2021/09/27 12:51:14;;;;;;;20.38;18.23;;;;;;;;;;5024560;28;20439;-84
2021/09/27 12:53:44;;;;;;;20.95;18.77;;;;;;;;;;4985138;28;20140;-84
2021/09/27 12:56:10;;;;;;;21.05;19.13;;;;;;;;;;5010800;28;20536;-84
2021/09/27 12:58:39;;;;;;;21.05;19.00;;;;;;;;;;5001744;28;20030;-84
2021/09/27 13:01:05;;;;;;;21.58;19.58;;;;;;;;;;5018834;28;20138;-83
2021/09/27 13:03:31;;;;;;;17.55;15.75;;;;;;;;;;5012756;28;20063;-83
2021/09/27 13:06:13;;;;;;;19.83;17.75;;;;;;;;;;5000376;28;20038;-84
2021/09/27 13:08:41;;;;;;;21.02;18.83;;;;;;;;;;5032770;28;20382;-84
2021/09/27 13:11:19;;;;;;;22.45;20.45;;;;;;;;;;5014696;28;20053;-84
2021/09/27 13:13:55;;;;;;;20.33;18.63;;;;;;;;;;5032613;28;20021;-84
2021/09/27 13:16:25;;;;;;;25.55;21.10;;;;;;;;;;5000019;28;20510;-83
2021/09/27 13:18:50;;;;;;;24.88;21.83;;;;;;;;;;5013739;28;20025;-85
2021/09/27 13:21:18;;;;;;;24.03;21.53;;;;;;;;;;5014348;28;20032;-84
2021/09/27 13:23:43;;;;;;;21.42;19.35;;;;;;;;;;5014555;28;20272;-84
2021/09/27 13:26:21;;;;;;;23.60;21.27;;;;;;;;;;5014398;28;20029;-84
2021/09/27 13:28:52;;;;;;;22.63;20.23;;;;;;;;;;5025587;28;20386;-83
2021/09/27 13:31:19;;;;;;;21.95;20.00;;;;;;;;;;4992555;28;20022;-84
2021/09/27 13:33:44;;;;;;;20.50;18.55;;;;;;;;;;4991251;28;20064;-84
2021/09/27 13:36:29;;;;;;;19.53;17.47;;;;;;;;;;5023650;28;20045;-84
2021/09/27 13:38:57;;;;;;;18.67;16.75;;;;;;;;;;5017995;28;20083;-83
2021/09/27 13:41:23;;;;;;;18.95;17.15;;;;;;;;;;5005827;28;20025;-84
2021/09/27 13:43:49;;;;;;;19.58;15.98;;;;;;;;;;5009357;28;20029;-84
2021/09/27 13:46:19;;;;;;;17.48;14.70;;;;;;;;;;4997425;28;20026;-84
2021/09/27 13:48:45;;;;;;;15.23;13.73;;;;;;;;;;5015123;28;20037;-84
2021/09/27 13:51:10;;;;;;;15.75;13.73;;;;;;;;;;5016447;28;20088;-84
2021/09/27 13:53:38;;;;;;;15.27;13.75;;;;;;;;;;5015225;28;20201;-84
2021/09/27 13:56:05;;;;;;;13.65;12.27;;;;;;;;;;5000922;28;20030;-83
2021/09/27 13:58:30;;;;;;;14.57;12.50;;;;;;;;;;4997970;28;20025;-84
2021/09/27 14:00:55;;;;;;;14.40;12.93;;;;;;;;;;5022651;28;20068;-84
2021/09/27 14:03:21;;;;;;;15.13;13.53;;;;;;;;;;4991569;28;21155;-84
2021/09/27 14:05:46;;;;;;;16.88;15.10;;;;;;;;;;5020802;28;20029;-84
2021/09/27 14:08:14;;;;;;;15.60;13.93;;;;;;;;;;5034764;28;20032;-84
2021/09/27 14:10:39;;;;;;;14.65;13.32;;;;;;;;;;4999974;28;20059;-84
2021/09/27 14:13:06;;;;;;;16.33;14.63;;;;;;;;;;5009084;28;20026;-83
2021/09/27 14:15:32;;;;;;;15.85;14.18;;;;;;;;;;5024118;28;20363;-83
2021/09/27 14:17:57;;;;;;;17.13;14.45;;;;;;;;;;5001632;28;20041;-83
2021/09/27 14:20:23;;;;;;;16.58;14.90;;;;;;;;;;5028864;28;20033;-83
2021/09/27 14:22:48;;;;;;;16.73;15.03;;;;;;;;;;4994226;28;20482;-83
2021/09/27 14:25:13;;;;;;;15.00;13.55;;;;;;;;;;5024100;28;20021;-83
2021/09/27 14:27:38;;;;;;;15.90;14.23;;;;;;;;;;5004723;28;20385;-83
2021/09/27 14:30:05;;;;;;;15.95;14.45;;;;;;;;;;5011030;28;20320;-83
2021/09/27 14:32:30;;;;;;;14.43;12.75;;;;;;;;;;4999141;28;20025;-83
2021/09/27 14:34:56;;;;;;;15.60;14.00;;;;;;;;;;5032364;28;20514;-83
2021/09/27 14:37:22;;;;;;;14.65;11.38;;;;;;;;;;5014494;28;20017;-83
2021/09/27 14:39:47;;;;;;;15.02;12.07;;;;;;;;;;5001536;28;20425;-83